createdAt,value
2022-08-19T00:00:59.807Z,8
2022-08-19T00:02:00.178Z,7
2022-08-19T00:02:59.811Z,8
2022-08-19T00:03:59.819Z,7
2022-08-19T00:04:59.872Z,7
2022-08-19T00:05:59.805Z,8
2022-08-19T00:06:59.840Z,7
2022-08-19T00:07:59.804Z,9
2022-08-19T00:08:59.827Z,7
2022-08-19T00:09:59.810Z,7
2022-08-19T00:10:59.814Z,10
2022-08-19T00:11:59.807Z,9
2022-08-19T00:12:59.807Z,7
2022-08-19T00:13:59.813Z,8
2022-08-19T00:14:59.809Z,8
2022-08-19T00:16:59.810Z,8
2022-08-19T00:17:59.817Z,9
2022-08-19T00:18:59.827Z,8
2022-08-19T00:19:59.810Z,7
2022-08-19T00:20:59.821Z,7
2022-08-19T00:21:59.811Z,7
2022-08-19T00:22:59.824Z,10
2022-08-19T00:23:59.819Z,8
2022-08-19T00:24:59.830Z,7
2022-08-19T00:25:59.814Z,9
2022-08-19T00:27:25.101Z,7
2022-08-19T00:27:59.818Z,7
2022-08-19T00:28:59.817Z,8
2022-08-19T00:29:59.824Z,8
2022-08-19T00:30:59.823Z,7
2022-08-19T00:31:59.822Z,8
2022-08-19T00:32:59.817Z,7
2022-08-19T00:33:59.820Z,7
2022-08-19T00:34:59.823Z,10
2022-08-19T00:35:59.850Z,7
2022-08-19T00:36:59.833Z,9
2022-08-19T00:37:59.822Z,7
2022-08-19T00:39:59.901Z,7
2022-08-19T00:40:59.822Z,9
2022-08-19T00:41:59.823Z,8
2022-08-19T00:42:59.828Z,10
2022-08-19T00:43:59.825Z,7
2022-08-19T00:44:59.837Z,8
2022-08-19T00:45:59.830Z,9
2022-08-19T00:46:59.826Z,9
2022-08-19T00:47:59.847Z,7
2022-08-19T00:48:59.828Z,7
2022-08-19T00:49:59.834Z,9
2022-08-19T00:50:59.823Z,7
2022-08-19T00:51:59.832Z,8
2022-08-19T00:52:59.829Z,6
2022-08-19T00:53:59.829Z,11
2022-08-19T00:54:59.834Z,8
2022-08-19T00:56:59.828Z,8
2022-08-19T00:57:59.825Z,9
2022-08-19T00:58:59.838Z,9
2022-08-19T01:00:02.438Z,7
2022-08-19T01:00:59.847Z,8
2022-08-19T01:01:59.902Z,9
2022-08-19T01:02:59.846Z,7
2022-08-19T01:03:59.833Z,7
2022-08-19T01:04:59.835Z,8
2022-08-19T01:05:59.831Z,9
2022-08-19T01:06:59.839Z,9
2022-08-19T01:07:59.840Z,7
2022-08-19T01:08:59.838Z,8
2022-08-19T01:09:59.837Z,8
2022-08-19T01:10:59.831Z,9
2022-08-19T01:11:59.906Z,8
2022-08-19T01:12:59.843Z,9
2022-08-19T01:13:59.842Z,8
2022-08-19T01:14:59.850Z,7
2022-08-19T01:15:59.849Z,8
2022-08-19T01:16:59.840Z,9
2022-08-19T01:17:59.844Z,8
2022-08-19T01:18:59.836Z,9
2022-08-19T01:19:59.844Z,7
2022-08-19T01:20:59.843Z,8
2022-08-19T01:21:59.843Z,10
2022-08-19T01:22:59.844Z,9
2022-08-19T01:23:59.842Z,8
2022-08-19T01:24:59.848Z,8
2022-08-19T01:25:59.843Z,12
2022-08-19T01:26:59.859Z,8
2022-08-19T01:28:02.143Z,6
2022-08-19T01:29:01.052Z,9
2022-08-19T01:29:59.846Z,7
2022-08-19T01:30:59.849Z,8
2022-08-19T01:31:59.847Z,10
2022-08-19T01:32:59.855Z,7
2022-08-19T01:33:59.852Z,11
2022-08-19T01:34:59.854Z,9
2022-08-19T01:35:59.843Z,10
2022-08-19T01:36:59.846Z,7
2022-08-19T01:37:59.854Z,7
2022-08-19T01:38:59.864Z,6
2022-08-19T01:39:59.859Z,7
2022-08-19T01:40:59.864Z,7
2022-08-19T01:42:59.889Z,7
2022-08-19T01:44:09.938Z,7
2022-08-19T01:44:59.855Z,10
2022-08-19T01:45:59.852Z,6
2022-08-19T01:46:59.860Z,9
2022-08-19T01:48:02.470Z,7
2022-08-19T01:48:59.859Z,6
2022-08-19T01:49:59.862Z,10
2022-08-19T01:50:59.856Z,7
2022-08-19T01:51:59.869Z,11
2022-08-19T01:53:59.886Z,8
2022-08-19T01:54:59.861Z,8
2022-08-19T01:55:59.852Z,8
2022-08-19T01:56:59.860Z,7
2022-08-19T01:57:59.854Z,7
2022-08-19T01:58:59.860Z,8
2022-08-19T01:59:59.865Z,9
2022-08-19T02:00:59.948Z,10
2022-08-19T02:01:59.856Z,11
2022-08-19T02:03:59.870Z,8
2022-08-19T02:04:59.870Z,10
2022-08-19T02:05:59.857Z,6
2022-08-19T02:06:59.870Z,10
2022-08-19T02:07:59.876Z,9
2022-08-19T02:08:59.862Z,7
2022-08-19T02:09:59.867Z,9
2022-08-19T02:10:59.865Z,7
2022-08-19T02:12:59.872Z,8
2022-08-19T02:13:59.874Z,8
2022-08-19T02:14:59.866Z,7
2022-08-19T02:15:59.870Z,7
2022-08-19T02:16:59.905Z,11
2022-08-19T02:17:59.871Z,9
2022-08-19T02:18:59.869Z,10
2022-08-19T02:19:59.899Z,9
2022-08-19T02:20:59.872Z,9
2022-08-19T02:21:59.872Z,8
2022-08-19T02:22:59.870Z,7
2022-08-19T02:24:59.872Z,8
2022-08-19T02:25:59.892Z,10
2022-08-19T02:26:59.874Z,9
2022-08-19T02:27:59.885Z,9
2022-08-19T02:29:00.089Z,9
2022-08-19T02:29:59.887Z,8
2022-08-19T02:31:59.885Z,11
2022-08-19T02:33:59.896Z,9
2022-08-19T02:34:59.880Z,8
2022-08-19T02:35:59.871Z,8
2022-08-19T02:37:03.582Z,9
2022-08-19T02:37:59.886Z,8
2022-08-19T02:38:59.878Z,10
2022-08-19T02:39:59.936Z,8
2022-08-19T02:40:59.878Z,8
2022-08-19T02:41:59.876Z,9
2022-08-19T02:42:59.887Z,10
2022-08-19T02:44:29.024Z,9
2022-08-19T02:44:59.895Z,7
2022-08-19T02:45:59.885Z,7
2022-08-19T02:46:59.947Z,8
2022-08-19T02:47:59.887Z,8
2022-08-19T02:48:59.888Z,9
2022-08-19T02:49:59.888Z,9
2022-08-19T02:50:59.889Z,9
2022-08-19T02:51:59.884Z,8
2022-08-19T02:52:59.890Z,10
2022-08-19T02:53:59.924Z,9
2022-08-19T02:54:59.889Z,10
2022-08-19T02:55:59.891Z,10
2022-08-19T02:56:59.884Z,9
2022-08-19T02:57:59.892Z,10
2022-08-19T02:58:59.924Z,12
2022-08-19T02:59:59.893Z,14
2022-08-19T03:01:00.009Z,13
2022-08-19T03:01:59.889Z,14
2022-08-19T03:02:59.890Z,13
2022-08-19T03:03:59.912Z,10
2022-08-19T03:04:59.897Z,10
2022-08-19T03:07:07.201Z,12
2022-08-19T03:07:59.902Z,12
2022-08-19T03:08:59.895Z,11
2022-08-19T03:09:59.900Z,11
2022-08-19T03:10:59.896Z,11
2022-08-19T03:11:59.910Z,11
2022-08-19T03:12:59.897Z,11
2022-08-19T03:13:59.894Z,11
2022-08-19T03:14:59.900Z,11
2022-08-19T03:15:59.906Z,9
2022-08-19T03:16:59.905Z,13
2022-08-19T03:17:59.929Z,9
2022-08-19T03:18:59.890Z,10
2022-08-19T03:19:59.905Z,9
2022-08-19T03:20:59.905Z,8
2022-08-19T03:21:59.904Z,10
2022-08-19T03:22:59.908Z,9
2022-08-19T03:23:59.894Z,7
2022-08-19T03:24:59.904Z,9
2022-08-19T03:26:15.783Z,7
2022-08-19T03:27:59.900Z,7
2022-08-19T03:28:59.898Z,9
2022-08-19T03:29:59.907Z,9
2022-08-19T03:30:59.917Z,10
2022-08-19T03:31:59.911Z,9
2022-08-19T03:33:00.064Z,9
2022-08-19T03:33:59.911Z,10
2022-08-19T03:34:59.937Z,8
2022-08-19T03:35:59.921Z,9
2022-08-19T03:36:59.911Z,9
2022-08-19T03:37:59.923Z,11
2022-08-19T03:40:00.037Z,8
2022-08-19T03:40:59.907Z,8
2022-08-19T03:42:32.041Z,9
2022-08-19T03:43:00.047Z,9
2022-08-19T03:43:59.911Z,10
2022-08-19T03:44:59.908Z,9
2022-08-19T03:45:59.911Z,8
2022-08-19T03:46:59.924Z,7
2022-08-19T03:47:59.943Z,8
2022-08-19T03:48:59.914Z,9
2022-08-19T03:49:59.911Z,8
2022-08-19T03:50:59.914Z,9
2022-08-19T03:51:59.908Z,9
2022-08-19T03:52:59.912Z,9
2022-08-19T03:53:59.913Z,8
2022-08-19T03:54:59.920Z,8
2022-08-19T03:55:59.915Z,7
2022-08-19T03:56:59.921Z,8
2022-08-19T03:57:59.923Z,10
2022-08-19T03:58:59.927Z,10
2022-08-19T04:00:04.017Z,9
2022-08-19T04:00:59.969Z,9
2022-08-19T04:01:59.923Z,8
2022-08-19T04:03:00.535Z,9
2022-08-19T04:03:59.920Z,9
2022-08-19T04:04:59.912Z,7
2022-08-19T04:05:59.921Z,8
2022-08-19T04:06:59.919Z,7
2022-08-19T04:08:00.300Z,7
2022-08-19T04:08:59.918Z,9
2022-08-19T04:09:59.937Z,9
2022-08-19T04:10:59.924Z,7
2022-08-19T04:11:59.937Z,7
2022-08-19T04:12:59.930Z,7
2022-08-19T04:13:59.929Z,8
2022-08-19T04:14:59.924Z,14
2022-08-19T04:15:59.929Z,8
2022-08-19T04:16:59.927Z,8
2022-08-19T04:17:59.925Z,9
2022-08-19T04:18:59.925Z,9
2022-08-19T04:19:59.935Z,11
2022-08-19T04:20:59.921Z,7
2022-08-19T04:21:59.952Z,9
2022-08-19T04:23:59.929Z,9
2022-08-19T04:24:59.933Z,7
2022-08-19T04:25:59.974Z,8
2022-08-19T04:26:59.947Z,10
2022-08-19T04:27:59.933Z,8
2022-08-19T04:28:59.935Z,8
2022-08-19T04:30:59.932Z,9
2022-08-19T04:32:59.928Z,8
2022-08-19T04:33:59.936Z,9
2022-08-19T04:35:01.524Z,8
2022-08-19T04:35:59.977Z,8
2022-08-19T04:36:59.944Z,8
2022-08-19T04:37:59.933Z,8
2022-08-19T04:38:59.933Z,8
2022-08-19T04:40:02.295Z,11
2022-08-19T04:40:59.985Z,7
2022-08-19T04:42:59.940Z,12
2022-08-19T04:44:04.123Z,8
2022-08-19T04:45:00.090Z,9
2022-08-19T04:46:00.761Z,7
2022-08-19T04:46:59.932Z,7
2022-08-19T04:48:26.548Z,9
2022-08-19T04:48:59.961Z,8
2022-08-19T04:49:59.954Z,8
2022-08-19T04:51:00.000Z,9
2022-08-19T04:51:59.955Z,7
2022-08-19T04:52:59.949Z,9
2022-08-19T04:53:59.940Z,7
2022-08-19T04:54:59.953Z,11
2022-08-19T04:55:59.990Z,9
2022-08-19T04:56:59.942Z,8
2022-08-19T04:57:59.948Z,9
2022-08-19T04:58:59.939Z,8
2022-08-19T04:59:59.950Z,12
2022-08-19T05:00:59.979Z,9
2022-08-19T05:01:59.949Z,9
2022-08-19T05:02:59.953Z,10
2022-08-19T05:03:59.953Z,8
2022-08-19T05:04:59.951Z,9
2022-08-19T05:05:59.954Z,12
2022-08-19T05:07:00.955Z,9
2022-08-19T05:07:59.949Z,9
2022-08-19T05:08:59.943Z,9
2022-08-19T05:09:59.952Z,9
2022-08-19T05:10:59.960Z,10
2022-08-19T05:11:59.948Z,9
2022-08-19T05:12:59.951Z,10
2022-08-19T05:13:59.953Z,10
2022-08-19T05:14:59.956Z,11
2022-08-19T05:15:59.958Z,11
2022-08-19T05:17:25.627Z,9
2022-08-19T05:17:59.957Z,6
2022-08-19T05:18:59.964Z,8
2022-08-19T05:19:59.961Z,11
2022-08-19T05:20:59.957Z,11
2022-08-19T05:21:59.972Z,9
2022-08-19T05:22:59.963Z,10
2022-08-19T05:23:59.964Z,11
2022-08-19T05:25:12.327Z,11
2022-08-19T05:25:59.964Z,10
2022-08-19T05:26:59.963Z,10
2022-08-19T05:27:59.969Z,8
2022-08-19T05:28:59.973Z,8
2022-08-19T05:31:59.977Z,10
2022-08-19T05:32:59.962Z,11
2022-08-19T05:33:59.971Z,14
2022-08-19T05:34:59.967Z,15
2022-08-19T05:35:59.959Z,12
2022-08-19T05:36:59.972Z,12
2022-08-19T05:37:59.966Z,14
2022-08-19T05:38:59.964Z,11
2022-08-19T05:40:00.019Z,11
2022-08-19T05:40:59.968Z,14
2022-08-19T05:41:59.974Z,13
2022-08-19T05:42:59.978Z,14
2022-08-19T05:43:59.982Z,12
2022-08-19T05:45:59.969Z,11
2022-08-19T05:46:59.965Z,13
2022-08-19T05:47:59.980Z,13
2022-08-19T05:48:59.970Z,13
2022-08-19T05:49:59.965Z,12
2022-08-19T05:51:59.975Z,11
2022-08-19T05:52:59.975Z,14
2022-08-19T05:53:59.974Z,12
2022-08-19T05:54:59.975Z,14
2022-08-19T05:55:59.970Z,14
2022-08-19T05:56:59.977Z,11
2022-08-19T05:58:00.031Z,11
2022-08-19T05:58:59.971Z,15
2022-08-19T05:59:59.970Z,10
2022-08-19T06:00:59.980Z,14
2022-08-19T06:01:59.988Z,16
2022-08-19T06:03:00.008Z,11
2022-08-19T06:03:59.982Z,15
2022-08-19T06:05:00.006Z,14
2022-08-19T06:05:59.977Z,14
2022-08-19T06:06:59.978Z,15
2022-08-19T06:07:59.982Z,14
2022-08-19T06:08:59.982Z,17
2022-08-19T06:10:01.426Z,16
2022-08-19T06:10:59.981Z,16
2022-08-19T06:12:59.988Z,17
2022-08-19T06:14:00.411Z,17
2022-08-19T06:15:01.276Z,15
2022-08-19T06:15:59.987Z,13
2022-08-19T06:17:01.762Z,14
2022-08-19T06:17:59.989Z,17
2022-08-19T06:19:00.003Z,15
2022-08-19T06:20:00.295Z,14
2022-08-19T06:20:59.995Z,18
2022-08-19T06:21:59.991Z,14
2022-08-19T06:22:59.989Z,14
2022-08-19T06:23:59.995Z,13
2022-08-19T06:24:59.989Z,13
2022-08-19T06:26:00.009Z,16
2022-08-19T06:27:01.634Z,17
2022-08-19T06:28:14.553Z,14
2022-08-19T06:28:59.994Z,16
2022-08-19T06:29:59.992Z,16
2022-08-19T06:31:00.004Z,16
2022-08-19T06:32:59.998Z,16
2022-08-19T06:33:59.992Z,18
2022-08-19T06:34:59.999Z,19
2022-08-19T06:35:59.997Z,15
2022-08-19T06:37:00.001Z,16
2022-08-19T06:38:00.013Z,17
2022-08-19T06:39:00.005Z,16
2022-08-19T06:41:00.000Z,18
2022-08-19T06:43:00.503Z,15
2022-08-19T06:44:00.001Z,16
2022-08-19T06:44:59.999Z,18
2022-08-19T06:46:00.014Z,17
2022-08-19T06:48:00.010Z,17
2022-08-19T06:49:00.010Z,20
2022-08-19T06:50:01.255Z,16
2022-08-19T06:51:00.023Z,16
2022-08-19T06:52:00.016Z,15
2022-08-19T06:53:04.372Z,20
2022-08-19T06:54:00.028Z,19
2022-08-19T06:55:00.018Z,18
2022-08-19T06:56:00.058Z,18
2022-08-19T06:57:00.015Z,17
2022-08-19T06:58:00.009Z,22
2022-08-19T06:59:00.016Z,19
2022-08-19T07:00:00.008Z,18
2022-08-19T07:02:00.008Z,21
2022-08-19T07:03:01.940Z,17
2022-08-19T07:05:00.233Z,17
2022-08-19T07:06:00.103Z,18
2022-08-19T07:07:00.021Z,20
2022-08-19T07:08:04.888Z,18
2022-08-19T07:09:00.030Z,19
2022-08-19T07:10:02.806Z,15
2022-08-19T07:11:00.111Z,18
2022-08-19T07:12:00.015Z,18
2022-08-19T07:13:00.023Z,19
2022-08-19T07:14:00.022Z,18
2022-08-19T07:15:00.026Z,16
2022-08-19T07:16:00.027Z,18
2022-08-19T07:18:00.027Z,19
2022-08-19T07:19:00.036Z,20
2022-08-19T07:20:05.547Z,20
2022-08-19T07:21:00.053Z,18
2022-08-19T07:22:00.026Z,20
2022-08-19T07:24:01.879Z,18
2022-08-19T07:25:00.027Z,19
2022-08-19T07:26:00.127Z,20
2022-08-19T07:27:00.038Z,22
2022-08-19T07:28:01.641Z,22
2022-08-19T07:29:00.027Z,19
2022-08-19T07:31:00.094Z,23
2022-08-19T07:32:00.868Z,22
2022-08-19T07:33:00.033Z,19
2022-08-19T07:34:00.044Z,20
2022-08-19T07:35:00.030Z,22
2022-08-19T07:36:00.033Z,25
2022-08-19T07:37:00.038Z,24
2022-08-19T07:39:00.036Z,21
2022-08-19T07:40:00.290Z,22
2022-08-19T07:41:00.038Z,23
2022-08-19T07:42:00.036Z,24
2022-08-19T07:43:00.040Z,24
2022-08-19T07:44:00.040Z,23
2022-08-19T07:45:00.062Z,23
2022-08-19T07:46:00.108Z,26
2022-08-19T07:47:00.046Z,23
2022-08-19T07:48:00.490Z,25
2022-08-19T07:49:00.045Z,23
2022-08-19T07:50:00.066Z,27
2022-08-19T07:51:00.050Z,25
2022-08-19T07:52:00.074Z,27
2022-08-19T07:53:00.042Z,23
2022-08-19T07:55:00.049Z,23
2022-08-19T07:56:00.126Z,25
2022-08-19T07:57:00.048Z,29
2022-08-19T07:58:00.127Z,24
2022-08-19T08:00:00.058Z,27
2022-08-19T08:02:00.137Z,26
2022-08-19T08:04:00.074Z,27
2022-08-19T08:05:00.064Z,27
2022-08-19T08:06:00.077Z,28
2022-08-19T08:07:00.076Z,27
2022-08-19T08:08:00.050Z,30
2022-08-19T08:09:00.068Z,23
2022-08-19T08:10:00.419Z,22
2022-08-19T08:11:00.124Z,17
2022-08-19T08:12:05.015Z,19
2022-08-19T08:14:01.031Z,15
2022-08-19T08:15:00.084Z,17
2022-08-19T08:16:00.082Z,16
2022-08-19T08:17:00.075Z,16
2022-08-19T08:18:00.079Z,17
2022-08-19T08:19:00.068Z,16
2022-08-19T08:20:00.083Z,20
2022-08-19T08:21:00.075Z,17
2022-08-19T08:22:00.096Z,17
2022-08-19T08:23:00.089Z,18
2022-08-19T08:25:00.114Z,19
2022-08-19T08:26:00.141Z,18
2022-08-19T08:27:00.098Z,17
2022-08-19T08:28:00.098Z,19
2022-08-19T08:29:00.071Z,17
2022-08-19T08:30:00.118Z,19
2022-08-19T08:31:00.128Z,18
2022-08-19T08:32:00.414Z,17
2022-08-19T08:35:00.100Z,18
2022-08-19T08:36:00.132Z,18
2022-08-19T08:37:00.077Z,17
2022-08-19T08:38:00.106Z,16
2022-08-19T08:39:00.192Z,20
2022-08-19T08:40:00.245Z,18
2022-08-19T08:41:00.115Z,18
2022-08-19T08:44:00.110Z,19
2022-08-19T08:46:00.103Z,20
2022-08-19T08:47:00.088Z,19
2022-08-19T08:48:00.127Z,18
2022-08-19T08:49:00.111Z,17
2022-08-19T08:50:00.149Z,23
2022-08-19T08:51:00.139Z,20
2022-08-19T08:52:00.599Z,21
2022-08-19T08:53:00.093Z,20
2022-08-19T08:54:00.089Z,19
2022-08-19T08:56:00.104Z,19
2022-08-19T08:57:00.127Z,20
2022-08-19T08:58:00.096Z,19
2022-08-19T08:59:00.093Z,21
2022-08-19T09:00:00.148Z,21
2022-08-19T09:01:00.094Z,19
2022-08-19T09:02:00.265Z,20
2022-08-19T09:03:00.104Z,18
2022-08-19T09:05:00.091Z,19
2022-08-19T09:07:00.103Z,19
2022-08-19T09:08:00.093Z,22
2022-08-19T09:09:00.093Z,17
2022-08-19T09:10:00.092Z,18
2022-08-19T09:11:00.116Z,16
2022-08-19T09:13:00.100Z,17
2022-08-19T09:14:00.097Z,18
2022-08-19T09:15:00.109Z,18
2022-08-19T09:16:00.107Z,15
2022-08-19T09:17:00.106Z,12
2022-08-19T09:18:00.103Z,17
2022-08-19T09:19:00.133Z,16
2022-08-19T09:20:00.166Z,15
2022-08-19T09:21:00.125Z,16
2022-08-19T09:22:00.105Z,15
2022-08-19T09:23:00.126Z,18
2022-08-19T09:24:00.296Z,18
2022-08-19T09:25:00.107Z,13
2022-08-19T09:26:00.101Z,18
2022-08-19T09:27:00.111Z,13
2022-08-19T09:28:02.389Z,9
2022-08-19T09:30:00.118Z,10
2022-08-19T09:31:00.103Z,9
2022-08-19T09:32:00.122Z,9
2022-08-19T09:34:00.117Z,9
2022-08-19T09:35:00.134Z,8
2022-08-19T09:36:00.129Z,9
2022-08-19T09:37:00.110Z,8
2022-08-19T09:38:00.309Z,8
2022-08-19T09:39:00.110Z,7
2022-08-19T09:40:00.258Z,9
2022-08-19T09:41:00.123Z,9
2022-08-19T09:42:00.122Z,11
2022-08-19T09:43:00.117Z,11
2022-08-19T09:44:00.120Z,12
2022-08-19T09:45:00.471Z,11
2022-08-19T09:46:00.108Z,13
2022-08-19T09:47:00.124Z,12
2022-08-19T09:48:00.125Z,14
2022-08-19T09:49:06.156Z,13
2022-08-19T09:50:00.150Z,13
2022-08-19T09:51:00.139Z,14
2022-08-19T09:52:00.125Z,15
2022-08-19T09:53:00.121Z,11
2022-08-19T09:54:00.139Z,12
2022-08-19T09:55:00.543Z,13
2022-08-19T09:56:00.120Z,12
2022-08-19T09:57:00.122Z,11
2022-08-19T09:58:00.133Z,12
2022-08-19T09:59:00.133Z,14
2022-08-19T10:00:00.191Z,12
2022-08-19T10:01:00.208Z,12
2022-08-19T10:02:03.862Z,12
2022-08-19T10:04:00.160Z,11
2022-08-19T10:05:00.133Z,12
2022-08-19T10:06:00.123Z,15
2022-08-19T10:07:00.135Z,15
2022-08-19T10:08:00.123Z,14
2022-08-19T10:09:00.135Z,15
2022-08-19T10:10:00.141Z,13
2022-08-19T10:12:00.138Z,14
2022-08-19T10:13:00.164Z,17
2022-08-19T10:14:00.127Z,18
2022-08-19T10:15:00.126Z,20
2022-08-19T10:17:00.145Z,20
2022-08-19T10:18:00.149Z,19
2022-08-19T10:19:00.143Z,15
2022-08-19T10:20:00.156Z,18
2022-08-19T10:21:00.154Z,19
2022-08-19T10:22:00.678Z,20
2022-08-19T10:23:00.142Z,16
2022-08-19T10:24:00.141Z,16
2022-08-19T10:25:00.151Z,17
2022-08-19T10:26:00.141Z,20
2022-08-19T10:27:00.203Z,19
2022-08-19T10:28:00.157Z,18
2022-08-19T10:29:00.156Z,17
2022-08-19T10:30:00.147Z,20
2022-08-19T10:31:00.151Z,20
2022-08-19T10:32:02.622Z,18
2022-08-19T10:34:00.156Z,17
2022-08-19T10:35:00.155Z,18
2022-08-19T10:38:02.090Z,21
2022-08-19T10:39:00.152Z,21
2022-08-19T10:40:00.350Z,16
2022-08-19T10:41:00.149Z,18
2022-08-19T10:42:00.148Z,22
2022-08-19T10:43:00.147Z,19
2022-08-19T10:44:04.525Z,19
2022-08-19T10:45:00.161Z,16
2022-08-19T10:46:00.228Z,18
2022-08-19T10:48:00.170Z,18
2022-08-19T10:49:00.155Z,20
2022-08-19T10:50:00.169Z,23
2022-08-19T10:51:00.170Z,21
2022-08-19T10:52:00.156Z,18
2022-08-19T10:53:00.163Z,24
2022-08-19T10:54:00.158Z,20
2022-08-19T10:55:00.155Z,21
2022-08-19T10:56:00.162Z,19
2022-08-19T10:57:00.155Z,18
2022-08-19T10:59:00.164Z,21
2022-08-19T11:01:00.228Z,21
2022-08-19T11:02:00.187Z,19
2022-08-19T11:03:00.165Z,21
2022-08-19T11:04:00.157Z,20
2022-08-19T11:05:04.871Z,21
2022-08-19T11:06:00.165Z,18
2022-08-19T11:07:00.168Z,18
2022-08-19T11:08:00.165Z,20
2022-08-19T11:09:00.167Z,23
2022-08-19T11:11:00.211Z,21
2022-08-19T11:12:00.181Z,20
2022-08-19T11:13:00.170Z,22
2022-08-19T11:14:00.176Z,16
2022-08-19T11:15:00.173Z,18
2022-08-19T11:16:03.982Z,16
2022-08-19T11:17:00.175Z,17
2022-08-19T11:18:00.201Z,20
2022-08-19T11:20:00.177Z,19
2022-08-19T11:22:00.293Z,19
2022-08-19T11:23:00.180Z,19
2022-08-19T11:25:00.180Z,20
2022-08-19T11:26:00.178Z,19
2022-08-19T11:27:00.179Z,19
2022-08-19T11:28:00.186Z,16
2022-08-19T11:29:00.181Z,17
2022-08-19T11:30:00.188Z,19
2022-08-19T11:32:00.230Z,22
2022-08-19T11:33:00.204Z,15
2022-08-19T11:34:00.182Z,17
2022-08-19T11:35:00.176Z,17
2022-08-19T11:36:00.194Z,18
2022-08-19T11:37:00.187Z,17
2022-08-19T11:38:00.187Z,18
2022-08-19T11:39:00.175Z,15
2022-08-19T11:40:00.337Z,18
2022-08-19T11:41:00.193Z,15
2022-08-19T11:42:00.193Z,14
2022-08-19T11:44:00.187Z,16
2022-08-19T11:45:00.185Z,14
2022-08-19T11:46:00.190Z,14
2022-08-19T11:47:00.180Z,16
2022-08-19T11:48:00.222Z,15
2022-08-19T11:49:00.183Z,16
2022-08-19T11:50:00.194Z,15
2022-08-19T11:51:00.188Z,16
2022-08-19T11:52:00.190Z,15
2022-08-19T11:53:00.238Z,16
2022-08-19T11:54:00.185Z,15
2022-08-19T11:55:00.189Z,13
2022-08-19T11:56:00.194Z,16
2022-08-19T11:57:00.193Z,11
2022-08-19T11:58:00.198Z,13
2022-08-19T11:59:00.192Z,17
2022-08-19T12:00:00.217Z,12
2022-08-19T12:01:00.204Z,13
2022-08-19T12:02:00.196Z,14
2022-08-19T12:03:00.199Z,11
2022-08-19T12:04:00.308Z,10
2022-08-19T12:05:00.202Z,9
2022-08-19T12:06:00.204Z,10
2022-08-19T12:07:00.196Z,9
2022-08-19T12:08:00.202Z,8
2022-08-19T12:09:00.206Z,11
2022-08-19T12:10:00.203Z,11
2022-08-19T12:11:00.203Z,10
2022-08-19T12:12:00.206Z,11
2022-08-19T12:13:00.214Z,14
2022-08-19T12:14:00.207Z,12
2022-08-19T12:15:00.204Z,11
2022-08-19T12:16:00.202Z,12
2022-08-19T12:17:00.208Z,13
2022-08-19T12:18:00.213Z,10
2022-08-19T12:19:00.205Z,10
2022-08-19T12:20:00.211Z,12
2022-08-19T12:21:00.216Z,10
2022-08-19T12:22:00.215Z,10
2022-08-19T12:23:00.200Z,13
2022-08-19T12:24:00.206Z,12
2022-08-19T12:25:00.208Z,10
2022-08-19T12:26:00.213Z,12
2022-08-19T12:27:00.899Z,10
2022-08-19T12:28:00.579Z,12
2022-08-19T12:29:00.208Z,10
2022-08-19T12:30:00.206Z,10
2022-08-19T12:31:00.211Z,10
2022-08-19T12:32:00.221Z,10
2022-08-19T12:33:00.227Z,12
2022-08-19T12:34:00.209Z,11
2022-08-19T12:35:00.221Z,9
2022-08-19T12:36:00.223Z,9
2022-08-19T12:37:00.217Z,11
2022-08-19T12:38:00.596Z,8
2022-08-19T12:39:00.221Z,8
2022-08-19T12:40:00.462Z,9
2022-08-19T12:41:00.561Z,8
2022-08-19T12:42:00.217Z,8
2022-08-19T12:43:00.226Z,11
2022-08-19T12:44:00.224Z,8
2022-08-19T12:46:00.224Z,8
2022-08-19T12:47:00.219Z,9
2022-08-19T12:48:00.223Z,9
2022-08-19T12:49:00.233Z,8
2022-08-19T12:50:00.226Z,9
2022-08-19T12:51:00.223Z,9
2022-08-19T12:53:00.235Z,9
2022-08-19T12:54:00.233Z,9
2022-08-19T12:55:00.222Z,10
2022-08-19T12:56:00.229Z,6
2022-08-19T12:57:00.231Z,9
2022-08-19T12:58:00.235Z,7
2022-08-19T12:59:00.228Z,9
2022-08-19T13:00:00.239Z,7
2022-08-19T13:02:00.228Z,6
2022-08-19T13:03:00.235Z,14
2022-08-19T13:04:00.241Z,11
2022-08-19T13:05:00.227Z,11
2022-08-19T13:07:00.234Z,7
2022-08-19T13:08:00.230Z,8
2022-08-19T13:09:00.237Z,8
2022-08-19T13:10:00.235Z,9
2022-08-19T13:11:00.264Z,7
2022-08-19T13:12:00.243Z,11
2022-08-19T13:13:00.244Z,7
2022-08-19T13:14:00.240Z,6
2022-08-19T13:15:00.232Z,6
2022-08-19T13:16:00.254Z,6
2022-08-19T13:17:00.269Z,7
2022-08-19T13:18:00.238Z,7
2022-08-19T13:19:00.234Z,9
2022-08-19T13:20:00.240Z,6
2022-08-19T13:21:00.244Z,6
2022-08-19T13:23:00.308Z,8
2022-08-19T13:24:00.268Z,6
2022-08-19T13:25:00.243Z,6
2022-08-19T13:26:00.256Z,4
2022-08-19T13:28:00.246Z,8
2022-08-19T13:29:00.249Z,5
2022-08-19T13:30:00.258Z,6
2022-08-19T13:31:00.250Z,6
2022-08-19T13:32:00.258Z,6
2022-08-19T13:33:00.254Z,5
2022-08-19T13:34:00.248Z,7
2022-08-19T13:35:00.259Z,6
2022-08-19T13:36:00.258Z,5
2022-08-19T13:37:00.260Z,6
2022-08-19T13:38:00.291Z,5
2022-08-19T13:39:00.298Z,9
2022-08-19T13:40:00.405Z,6
2022-08-19T13:41:00.927Z,5
2022-08-19T13:42:00.258Z,5
2022-08-19T13:43:00.260Z,6
2022-08-19T13:44:00.268Z,8
2022-08-19T13:45:00.272Z,6
2022-08-19T13:46:00.251Z,6
2022-08-19T13:47:00.260Z,6
2022-08-19T13:49:00.258Z,6
2022-08-19T13:50:00.272Z,5
2022-08-19T13:51:00.271Z,15
2022-08-19T13:52:00.281Z,5
2022-08-19T13:53:00.267Z,6
2022-08-19T13:54:00.263Z,6
2022-08-19T13:55:00.266Z,5
2022-08-19T13:56:00.269Z,7
2022-08-19T13:57:00.277Z,7
2022-08-19T13:58:00.263Z,9
2022-08-19T13:59:00.269Z,8
2022-08-19T14:00:00.278Z,5
2022-08-19T14:01:00.444Z,7
2022-08-19T14:03:00.265Z,7
2022-08-19T14:04:00.281Z,6
2022-08-19T14:05:00.287Z,5
2022-08-19T14:06:00.277Z,7
2022-08-19T14:07:00.277Z,5
2022-08-19T14:08:00.276Z,5
2022-08-19T14:10:00.284Z,6
2022-08-19T14:11:00.281Z,5
2022-08-19T14:13:00.287Z,7
2022-08-19T14:14:00.274Z,5
2022-08-19T14:15:00.287Z,7
2022-08-19T14:16:00.275Z,6
2022-08-19T14:17:00.282Z,6
2022-08-19T14:18:00.279Z,9
2022-08-19T14:19:00.279Z,6
2022-08-19T14:20:00.293Z,10
2022-08-19T14:21:00.287Z,7
2022-08-19T14:22:00.302Z,7
2022-08-19T14:23:00.288Z,7
2022-08-19T14:24:00.368Z,7
2022-08-19T14:25:00.299Z,5
2022-08-19T14:26:03.412Z,7
2022-08-19T14:27:00.289Z,7
2022-08-19T14:28:00.279Z,8
2022-08-19T14:29:00.292Z,9
2022-08-19T14:31:00.296Z,7
2022-08-19T14:32:00.294Z,6
2022-08-19T14:33:00.296Z,8
2022-08-19T14:34:00.302Z,7
2022-08-19T14:35:00.284Z,7
2022-08-19T14:36:00.309Z,6
2022-08-19T14:37:00.300Z,7
2022-08-19T14:38:00.614Z,7
2022-08-19T14:39:00.286Z,7
2022-08-19T14:40:00.439Z,6
2022-08-19T14:41:00.297Z,10
2022-08-19T14:42:00.297Z,9
2022-08-19T14:43:00.472Z,9
2022-08-19T14:44:00.295Z,9
2022-08-19T14:45:00.302Z,9
2022-08-19T14:46:00.323Z,11
2022-08-19T14:47:00.297Z,9
2022-08-19T14:48:00.323Z,8
2022-08-19T14:49:00.451Z,12
2022-08-19T14:51:00.300Z,10
2022-08-19T14:52:00.316Z,11
2022-08-19T14:53:00.303Z,11
2022-08-19T14:54:00.299Z,10
2022-08-19T14:55:00.298Z,11
2022-08-19T14:56:00.312Z,9
2022-08-19T14:57:00.311Z,11
2022-08-19T14:58:00.345Z,9
2022-08-19T15:00:00.312Z,10
2022-08-19T15:02:00.383Z,11
2022-08-19T15:03:00.303Z,8
2022-08-19T15:04:00.321Z,9
2022-08-19T15:05:00.310Z,10
2022-08-19T15:06:00.316Z,9
2022-08-19T15:07:00.313Z,8
2022-08-19T15:08:00.311Z,8
2022-08-19T15:10:00.414Z,7
2022-08-19T15:11:00.331Z,9
2022-08-19T15:12:00.315Z,7
2022-08-19T15:13:00.316Z,8
2022-08-19T15:14:00.309Z,8
2022-08-19T15:15:00.409Z,9
2022-08-19T15:16:00.313Z,7
2022-08-19T15:17:00.308Z,10
2022-08-19T15:18:00.595Z,11
2022-08-19T15:19:00.320Z,7
2022-08-19T15:20:00.471Z,7
2022-08-19T15:21:00.341Z,8
2022-08-19T15:22:00.321Z,7
2022-08-19T15:23:00.341Z,8
2022-08-19T15:24:00.327Z,8
2022-08-19T15:25:00.329Z,7
2022-08-19T15:26:00.320Z,9
2022-08-19T15:27:00.325Z,7
2022-08-19T15:28:00.330Z,8
2022-08-19T15:29:00.336Z,8
2022-08-19T15:30:01.277Z,7
2022-08-19T15:31:00.334Z,8
2022-08-19T15:32:00.326Z,8
2022-08-19T15:33:00.324Z,9
2022-08-19T15:34:00.325Z,9
2022-08-19T15:35:00.326Z,7
2022-08-19T15:36:00.328Z,8
2022-08-19T15:37:00.337Z,7
2022-08-19T15:39:00.336Z,6
2022-08-19T15:40:00.550Z,8
2022-08-19T15:41:00.335Z,9
2022-08-19T15:42:00.334Z,7
2022-08-19T15:43:00.343Z,9
2022-08-19T15:44:00.336Z,8
2022-08-19T15:45:01.483Z,8
2022-08-19T15:46:00.357Z,9
2022-08-19T15:47:00.329Z,9
2022-08-19T15:48:00.337Z,9
2022-08-19T15:49:00.600Z,8
2022-08-19T15:50:01.033Z,10
2022-08-19T15:51:00.340Z,10